createdAt,value
2023-03-29T00:00:33.018Z,5.78
2023-03-29T00:03:04.319Z,5.40
2023-03-29T00:05:34.843Z,4.90
2023-03-29T00:08:04.842Z,3.78
2023-03-29T00:10:33.621Z,5.75
2023-03-29T00:13:01.895Z,6.18
2023-03-29T00:15:30.007Z,5.70
2023-03-29T00:17:58.255Z,5.63
2023-03-29T00:20:28.751Z,5.90
2023-03-29T00:22:56.676Z,6.50
2023-03-29T00:25:24.393Z,5.90
2023-03-29T00:27:52.124Z,6.43
2023-03-29T00:30:19.983Z,4.93
2023-03-29T00:32:47.832Z,4.95
2023-03-29T00:35:16.613Z,4.22
2023-03-29T00:37:47.339Z,4.25
2023-03-29T00:40:15.824Z,6.50
2023-03-29T00:42:45.524Z,3.63
2023-03-29T00:45:20.076Z,4.03
2023-03-29T00:47:51.150Z,8.10
2023-03-29T00:50:22.597Z,3.92
2023-03-29T00:52:54.964Z,4.80
2023-03-29T00:55:24.897Z,5.13
2023-03-29T00:57:55.850Z,4.97
2023-03-29T01:00:28.272Z,6.72
2023-03-29T01:03:01.641Z,4.35
2023-03-29T01:05:33.428Z,6.00
2023-03-29T01:08:06.931Z,7.18
2023-03-29T01:10:40.117Z,4.43
2023-03-29T01:13:11.628Z,6.60
2023-03-29T01:15:43.000Z,8.85
2023-03-29T01:18:11.053Z,6.30
2023-03-29T01:20:54.084Z,6.97
2023-03-29T01:23:44.204Z,5.85
2023-03-29T01:26:20.232Z,4.85
2023-03-29T01:28:54.067Z,8.88
2023-03-29T01:31:26.138Z,3.43
2023-03-29T01:34:00.208Z,4.93
2023-03-29T01:36:35.076Z,4.68
2023-03-29T01:39:05.465Z,5.57
2023-03-29T01:41:41.580Z,12.68
2023-03-29T01:44:15.528Z,12.73
2023-03-29T01:46:47.204Z,8.13
2023-03-29T01:49:22.807Z,6.00
2023-03-29T01:51:54.545Z,5.22
2023-03-29T01:54:27.388Z,7.30
2023-03-29T01:56:57.511Z,4.27
2023-03-29T01:59:31.238Z,4.10
2023-03-29T02:02:01.557Z,5.25
2023-03-29T02:04:34.443Z,6.55
2023-03-29T02:07:04.914Z,8.95
2023-03-29T02:09:34.505Z,5.10
2023-03-29T02:12:04.161Z,3.67
2023-03-29T02:14:33.097Z,4.28
2023-03-29T02:17:16.691Z,4.30
2023-03-29T02:19:46.215Z,3.83
2023-03-29T02:22:16.647Z,5.63
2023-03-29T02:24:48.223Z,5.05
2023-03-29T02:27:16.073Z,6.30
2023-03-29T02:29:46.885Z,5.13
2023-03-29T02:32:19.563Z,26.30
2023-03-29T02:34:51.343Z,7.67
2023-03-29T02:37:21.872Z,5.53
2023-03-29T02:39:51.207Z,4.95
2023-03-29T02:42:20.438Z,3.88
2023-03-29T02:44:52.032Z,3.53
2023-03-29T02:47:26.184Z,3.97
2023-03-29T02:49:54.076Z,4.90
2023-03-29T02:52:26.919Z,3.50
2023-03-29T02:54:56.809Z,3.38
2023-03-29T02:57:26.487Z,5.22
2023-03-29T02:59:58.433Z,5.03
2023-03-29T03:02:27.849Z,2.92
2023-03-29T03:04:55.781Z,4.10
2023-03-29T03:07:25.143Z,3.35
2023-03-29T03:09:53.290Z,5.10
2023-03-29T03:12:21.024Z,4.63
2023-03-29T03:14:49.092Z,4.25
2023-03-29T03:17:18.710Z,4.43
2023-03-29T03:19:46.507Z,7.20
2023-03-29T03:22:15.028Z,3.45
2023-03-29T03:24:42.656Z,4.93
2023-03-29T03:27:10.434Z,3.08
2023-03-29T03:29:38.552Z,3.38
2023-03-29T03:32:06.879Z,5.60
2023-03-29T03:34:36.580Z,3.47
2023-03-29T03:37:04.369Z,4.63
2023-03-29T03:39:32.598Z,4.22
2023-03-29T03:42:00.287Z,5.03
2023-03-29T03:44:28.088Z,4.18
2023-03-29T03:46:55.916Z,5.35
2023-03-29T03:49:23.644Z,4.33
2023-03-29T03:51:53.119Z,4.93
2023-03-29T03:54:20.998Z,8.05
2023-03-29T03:56:49.156Z,4.20
2023-03-29T03:59:16.783Z,4.88
2023-03-29T04:01:45.502Z,3.60
2023-03-29T04:04:14.382Z,2.72
2023-03-29T04:06:43.750Z,4.72
2023-03-29T04:09:13.177Z,4.78
2023-03-29T04:11:41.041Z,3.60
2023-03-29T04:14:09.357Z,4.13
2023-03-29T04:16:38.024Z,5.00
2023-03-29T04:19:05.841Z,8.75
2023-03-29T04:21:34.436Z,6.88
2023-03-29T04:24:02.196Z,3.15
2023-03-29T04:26:31.166Z,3.97
2023-03-29T04:28:58.920Z,5.38
2023-03-29T04:31:26.772Z,4.28
2023-03-29T04:33:54.655Z,3.00
2023-03-29T04:36:22.543Z,13.05
2023-03-29T04:38:52.439Z,8.53
2023-03-29T04:41:20.859Z,5.55
2023-03-29T04:43:49.954Z,6.82
2023-03-29T04:46:17.643Z,4.00
2023-03-29T04:48:45.272Z,6.47
2023-03-29T04:51:13.289Z,4.60
2023-03-29T04:53:41.070Z,5.97
2023-03-29T04:56:09.944Z,3.53
2023-03-29T04:58:37.832Z,3.55
2023-03-29T05:01:07.117Z,6.22
2023-03-29T05:03:35.732Z,9.47
2023-03-29T05:06:06.756Z,16.88
2023-03-29T05:08:34.830Z,13.60
2023-03-29T05:11:04.005Z,9.40
2023-03-29T05:13:31.855Z,7.35
2023-03-29T05:16:00.722Z,7.97
2023-03-29T05:18:30.752Z,4.80
2023-03-29T05:20:59.596Z,6.47
2023-03-29T05:23:27.985Z,5.30
2023-03-29T05:25:55.739Z,6.93
2023-03-29T05:28:23.337Z,7.20
2023-03-29T05:31:01.511Z,5.13
2023-03-29T05:33:31.804Z,6.28
2023-03-29T05:36:01.444Z,7.53
2023-03-29T05:38:29.719Z,5.45
2023-03-29T05:40:57.689Z,6.17
2023-03-29T05:43:26.158Z,5.28
2023-03-29T05:45:54.582Z,8.27
2023-03-29T05:48:23.373Z,6.90
2023-03-29T05:50:57.915Z,7.30
2023-03-29T05:53:27.280Z,5.13
2023-03-29T05:55:55.477Z,5.00
2023-03-29T05:58:23.464Z,6.95
2023-03-29T06:00:52.218Z,5.80
2023-03-29T06:03:23.692Z,6.78
2023-03-29T06:06:00.559Z,9.53
2023-03-29T06:08:28.557Z,6.28
2023-03-29T06:11:02.478Z,6.45
2023-03-29T06:13:33.509Z,6.38
2023-03-29T06:16:01.447Z,5.40
2023-03-29T06:18:29.509Z,5.60
2023-03-29T06:20:57.284Z,8.07
2023-03-29T06:23:26.371Z,7.30
2023-03-29T06:25:55.306Z,6.80
2023-03-29T06:28:24.192Z,6.15
2023-03-29T06:30:53.449Z,6.37
2023-03-29T06:33:21.506Z,7.38
2023-03-29T06:35:50.593Z,6.32
2023-03-29T06:38:18.798Z,6.00
2023-03-29T06:40:48.272Z,8.02
2023-03-29T06:43:15.918Z,9.07
2023-03-29T06:45:43.953Z,5.80
2023-03-29T06:48:12.280Z,6.50
2023-03-29T06:50:40.047Z,10.52
2023-03-29T06:53:08.069Z,7.40
2023-03-29T06:55:36.060Z,6.13
2023-03-29T06:58:05.366Z,4.93
2023-03-29T07:00:35.786Z,8.05
2023-03-29T07:03:08.413Z,8.02
2023-03-29T07:05:40.676Z,6.88
2023-03-29T07:08:16.553Z,7.90
2023-03-29T07:10:47.492Z,7.55
2023-03-29T07:13:17.389Z,9.30
2023-03-29T07:15:45.828Z,7.47
2023-03-29T07:18:13.550Z,7.68
2023-03-29T07:20:42.644Z,7.87
2023-03-29T07:23:11.761Z,8.60
2023-03-29T07:25:41.118Z,5.53
2023-03-29T07:28:09.164Z,9.27
2023-03-29T07:30:38.256Z,8.82
2023-03-29T07:33:06.068Z,6.33
2023-03-29T07:35:35.080Z,7.07
2023-03-29T07:38:03.942Z,6.75
2023-03-29T07:40:31.755Z,8.90
2023-03-29T07:42:59.792Z,8.27
2023-03-29T07:45:29.667Z,7.07
2023-03-29T07:48:00.848Z,7.43
2023-03-29T07:50:32.347Z,6.80
2023-03-29T07:53:00.923Z,6.70
2023-03-29T07:55:28.816Z,9.52
2023-03-29T07:57:56.720Z,6.80
2023-03-29T08:00:24.963Z,7.20
2023-03-29T08:02:53.959Z,6.15
2023-03-29T08:05:37.875Z,6.57
2023-03-29T08:08:09.802Z,7.90
2023-03-29T08:10:39.363Z,4.90
2023-03-29T08:13:09.226Z,8.57
2023-03-29T08:15:39.567Z,6.65
2023-03-29T08:18:07.933Z,6.53
2023-03-29T08:20:37.065Z,6.13
2023-03-29T08:23:04.862Z,10.70
2023-03-29T08:25:32.698Z,8.55
2023-03-29T08:28:00.493Z,6.15
2023-03-29T08:30:28.595Z,6.65
2023-03-29T08:32:56.683Z,6.30
2023-03-29T08:35:25.208Z,5.40
2023-03-29T08:37:54.631Z,3.72
2023-03-29T08:40:25.051Z,5.75
2023-03-29T08:43:12.297Z,5.68
2023-03-29T08:45:50.892Z,5.60
2023-03-29T08:48:26.128Z,5.83
2023-03-29T08:50:56.840Z,6.93
2023-03-29T08:53:30.389Z,5.88
2023-03-29T08:56:00.483Z,7.28
2023-03-29T08:58:32.576Z,7.32
2023-03-29T09:01:02.666Z,6.13
2023-03-29T09:03:34.939Z,5.53
2023-03-29T09:06:06.978Z,4.65
2023-03-29T09:08:40.377Z,8.25
2023-03-29T09:11:21.889Z,4.53
2023-03-29T09:13:59.479Z,6.20
2023-03-29T09:16:34.842Z,5.50
2023-03-29T09:19:11.473Z,5.30
2023-03-29T09:21:46.958Z,4.60
2023-03-29T09:24:29.935Z,3.75
2023-03-29T09:27:04.211Z,6.40
2023-03-29T09:29:47.430Z,5.85
2023-03-29T09:32:21.287Z,5.65
2023-03-29T09:34:59.706Z,4.97
2023-03-29T09:37:33.320Z,5.03
2023-03-29T09:40:05.784Z,4.33
2023-03-29T09:42:36.867Z,5.25
2023-03-29T09:45:08.520Z,6.45
2023-03-29T09:47:40.868Z,7.57
2023-03-29T09:50:27.803Z,4.10
2023-03-29T09:53:01.406Z,8.90
2023-03-29T09:55:34.402Z,4.88
2023-03-29T09:58:06.144Z,7.38
2023-03-29T10:00:36.762Z,5.70
2023-03-29T10:03:04.792Z,9.40
2023-03-29T10:05:37.503Z,5.97
2023-03-29T10:08:19.833Z,6.85
2023-03-29T10:10:49.731Z,3.85
2023-03-29T10:13:21.844Z,3.63
2023-03-29T10:15:59.224Z,4.15
2023-03-29T10:18:27.602Z,3.70
2023-03-29T10:21:00.870Z,3.00
2023-03-29T10:23:33.468Z,6.03
2023-03-29T10:26:05.378Z,2.65
2023-03-29T10:28:36.277Z,2.45
2023-03-29T10:31:08.283Z,2.03
2023-03-29T10:33:37.524Z,3.83
2023-03-29T10:36:09.138Z,3.90
2023-03-29T10:38:38.068Z,2.80
2023-03-29T10:41:11.829Z,3.08
2023-03-29T10:43:44.089Z,2.57
2023-03-29T10:46:14.572Z,3.47
2023-03-29T10:48:49.035Z,4.60
2023-03-29T10:51:20.047Z,2.30
2023-03-29T10:53:48.177Z,3.75
2023-03-29T10:56:35.422Z,4.10
2023-03-29T10:59:18.172Z,4.00
2023-03-29T11:01:59.142Z,3.25
2023-03-29T11:04:38.305Z,2.47
2023-03-29T11:07:31.707Z,3.65
2023-03-29T11:10:13.423Z,2.77
2023-03-29T11:12:51.040Z,2.97
2023-03-29T11:15:35.246Z,4.97
2023-03-29T11:18:19.042Z,3.13
2023-03-29T11:20:52.809Z,5.03
2023-03-29T11:23:34.638Z,9.13
2023-03-29T11:26:13.077Z,6.10
2023-03-29T11:28:48.689Z,14.38
2023-03-29T11:31:22.935Z,13.02
2023-03-29T11:34:01.814Z,3.72
2023-03-29T11:36:39.993Z,4.67
2023-03-29T11:39:17.350Z,2.80
2023-03-29T11:41:48.447Z,4.15
2023-03-29T11:44:20.982Z,3.10
2023-03-29T11:46:53.329Z,3.22
2023-03-29T11:49:25.955Z,3.60
2023-03-29T11:51:58.331Z,3.58
2023-03-29T11:54:31.442Z,7.50
2023-03-29T11:57:03.028Z,8.68
2023-03-29T11:59:38.649Z,6.72
2023-03-29T12:02:15.590Z,3.10
2023-03-29T12:04:47.680Z,3.60
2023-03-29T12:07:20.283Z,3.53
2023-03-29T12:09:51.775Z,4.25
2023-03-29T12:12:25.062Z,2.47
2023-03-29T12:15:02.177Z,3.57
2023-03-29T12:17:35.663Z,3.67
2023-03-29T12:20:17.162Z,3.60
2023-03-29T12:22:48.921Z,4.53
2023-03-29T12:25:22.816Z,3.40
2023-03-29T12:28:00.793Z,6.10
2023-03-29T12:30:47.753Z,2.90
2023-03-29T12:33:47.618Z,4.50
2023-03-29T12:36:32.918Z,3.13
2023-03-29T12:39:00.714Z,4.95
2023-03-29T12:41:29.481Z,4.23
2023-03-29T12:44:03.506Z,3.20
2023-03-29T12:46:35.662Z,2.78
2023-03-29T12:49:12.129Z,3.22
2023-03-29T12:51:43.611Z,6.00
2023-03-29T12:54:15.824Z,2.03
2023-03-29T12:56:55.851Z,6.57
2023-03-29T12:59:36.805Z,5.65
2023-03-29T13:02:37.092Z,4.43
2023-03-29T13:05:07.500Z,2.60
2023-03-29T13:07:47.538Z,3.30
2023-03-29T13:10:36.350Z,2.78
2023-03-29T13:13:15.795Z,2.97
2023-03-29T13:15:44.928Z,2.78
2023-03-29T13:18:28.930Z,2.13
2023-03-29T13:21:05.882Z,3.00
2023-03-29T13:23:45.865Z,2.15
2023-03-29T13:26:42.831Z,3.63
2023-03-29T13:29:42.665Z,5.07
2023-03-29T13:32:29.688Z,3.05
2023-03-29T13:35:06.323Z,3.30
2023-03-29T13:37:42.278Z,3.75
2023-03-29T13:40:43.013Z,3.30
2023-03-29T13:43:20.159Z,6.43
2023-03-29T13:46:04.387Z,4.45
2023-03-29T13:48:34.333Z,4.33
2023-03-29T13:51:08.392Z,6.57
2023-03-29T13:53:40.920Z,3.80
2023-03-29T13:56:17.212Z,3.85
2023-03-29T13:58:48.415Z,2.78
2023-03-29T14:01:24.388Z,3.77
2023-03-29T14:03:53.208Z,7.20
2023-03-29T14:06:28.528Z,5.63
2023-03-29T14:08:56.876Z,3.67
2023-03-29T14:11:26.574Z,2.15
2023-03-29T14:13:55.512Z,3.60
2023-03-29T14:16:24.286Z,3.58
2023-03-29T14:18:52.804Z,8.73
2023-03-29T14:21:21.604Z,4.95
2023-03-29T14:23:59.291Z,7.65
2023-03-29T14:26:32.064Z,7.97
2023-03-29T14:29:01.132Z,5.13
2023-03-29T14:31:32.199Z,7.15
2023-03-29T14:34:01.584Z,4.93
2023-03-29T14:36:31.144Z,2.50
2023-03-29T14:39:04.222Z,2.80
2023-03-29T14:41:32.663Z,4.03
2023-03-29T14:44:01.543Z,3.42
2023-03-29T14:46:29.823Z,6.22
2023-03-29T14:48:58.071Z,4.03
2023-03-29T14:51:30.379Z,3.63
2023-03-29T14:54:01.214Z,4.57
2023-03-29T14:56:29.092Z,3.10
2023-03-29T14:58:58.037Z,4.22
2023-03-29T15:01:27.902Z,5.25
2023-03-29T15:03:57.823Z,4.87
2023-03-29T15:06:27.243Z,5.10
2023-03-29T15:09:05.200Z,5.25
2023-03-29T15:11:36.033Z,3.65
2023-03-29T15:14:06.203Z,4.30
2023-03-29T15:16:34.400Z,5.30
2023-03-29T15:19:03.455Z,6.22
2023-03-29T15:21:35.495Z,6.30
2023-03-29T15:24:05.162Z,5.30
2023-03-29T15:26:36.936Z,4.38
2023-03-29T15:29:09.105Z,8.13
2023-03-29T15:31:38.754Z,13.27
2023-03-29T15:34:09.520Z,13.85
2023-03-29T15:36:42.615Z,8.45
2023-03-29T15:39:13.158Z,6.10
2023-03-29T15:41:42.368Z,9.70
2023-03-29T15:44:10.952Z,7.20
2023-03-29T15:46:38.914Z,4.78
2023-03-29T15:49:07.258Z,4.47
2023-03-29T15:51:34.922Z,4.25
2023-03-29T15:54:02.743Z,4.17
2023-03-29T15:56:32.289Z,6.90
2023-03-29T15:59:01.721Z,8.43
2023-03-29T16:01:35.040Z,5.65
2023-03-29T16:04:03.054Z,4.13
2023-03-29T16:06:31.203Z,4.50
2023-03-29T16:08:59.234Z,4.93
2023-03-29T16:11:27.092Z,7.53
2023-03-29T16:13:54.919Z,6.13
2023-03-29T16:16:24.162Z,4.95
2023-03-29T16:18:52.028Z,4.43
2023-03-29T16:21:22.684Z,4.57
2023-03-29T16:23:51.522Z,3.92
2023-03-29T16:26:19.161Z,3.22
2023-03-29T16:28:46.736Z,5.55
2023-03-29T16:31:15.086Z,5.10
2023-03-29T16:33:44.654Z,4.65
2023-03-29T16:36:13.141Z,7.90
2023-03-29T16:38:41.013Z,5.50
2023-03-29T16:41:09.014Z,6.75
2023-03-29T16:43:38.692Z,8.70
2023-03-29T16:46:09.311Z,5.28
2023-03-29T16:48:37.207Z,5.45
2023-03-29T16:51:07.148Z,4.72
2023-03-29T16:53:35.785Z,3.38
2023-03-29T16:56:03.783Z,4.23
2023-03-29T16:58:31.698Z,3.13
2023-03-29T17:00:59.506Z,5.40
2023-03-29T17:03:27.733Z,4.70
2023-03-29T17:05:57.540Z,4.28
2023-03-29T17:08:26.502Z,3.43
2023-03-29T17:10:55.750Z,3.97
2023-03-29T17:13:23.932Z,10.40
2023-03-29T17:15:52.959Z,10.65
2023-03-29T17:18:23.309Z,10.27
2023-03-29T17:20:51.975Z,6.73
2023-03-29T17:23:20.099Z,7.80
2023-03-29T17:25:49.271Z,5.75
2023-03-29T17:28:16.873Z,4.40
2023-03-29T17:30:46.180Z,5.28
2023-03-29T17:33:14.379Z,6.53
2023-03-29T17:35:43.050Z,4.97
2023-03-29T17:38:11.129Z,4.57
2023-03-29T17:40:39.244Z,5.57
2023-03-29T17:43:08.200Z,5.40
2023-03-29T17:45:36.541Z,4.33
2023-03-29T17:48:06.229Z,10.73
2023-03-29T17:50:34.692Z,21.33
2023-03-29T17:53:03.615Z,10.50
2023-03-29T17:55:31.338Z,8.45
2023-03-29T17:57:59.025Z,6.50
2023-03-29T18:00:29.250Z,7.63
2023-03-29T18:02:57.746Z,4.63
2023-03-29T18:05:26.330Z,4.53
2023-03-29T18:07:53.960Z,11.43
2023-03-29T18:10:21.838Z,10.63
2023-03-29T18:12:49.579Z,7.80
2023-03-29T18:15:17.502Z,8.02
2023-03-29T18:17:48.302Z,6.40
2023-03-29T18:20:17.136Z,5.40
2023-03-29T18:22:45.709Z,7.80
2023-03-29T18:25:14.719Z,8.23
2023-03-29T18:27:42.498Z,8.90
2023-03-29T18:30:11.139Z,10.07
2023-03-29T18:32:38.921Z,10.00
2023-03-29T18:35:09.198Z,5.67
2023-03-29T18:37:37.685Z,4.65
2023-03-29T18:40:09.649Z,7.55
2023-03-29T18:42:37.677Z,4.72
2023-03-29T18:45:06.542Z,6.88
2023-03-29T18:47:34.333Z,6.20
2023-03-29T18:50:03.206Z,5.47
2023-03-29T18:52:32.240Z,5.82
2023-03-29T18:54:59.994Z,6.40
2023-03-29T18:57:28.387Z,7.93
2023-03-29T18:59:56.914Z,5.57
2023-03-29T19:02:24.835Z,6.40
2023-03-29T19:04:52.688Z,5.65
2023-03-29T19:07:22.570Z,5.53
2023-03-29T19:09:55.783Z,5.13
2023-03-29T19:12:23.715Z,5.13
2023-03-29T19:14:52.110Z,6.05
2023-03-29T19:17:21.707Z,7.50
2023-03-29T19:19:49.408Z,7.82
2023-03-29T19:22:17.553Z,22.13
2023-03-29T19:24:45.909Z,16.67
2023-03-29T19:27:15.116Z,18.50
2023-03-29T19:29:42.756Z,11.80
2023-03-29T19:32:11.145Z,10.30
2023-03-29T19:34:39.381Z,7.95
2023-03-29T19:37:07.088Z,13.70
2023-03-29T19:39:35.471Z,12.35
2023-03-29T19:42:03.923Z,9.30
2023-03-29T19:44:33.679Z,10.77
2023-03-29T19:47:02.423Z,7.63
2023-03-29T19:49:30.025Z,9.97
2023-03-29T19:51:58.210Z,10.30
2023-03-29T19:54:26.879Z,9.45
2023-03-29T19:56:57.352Z,9.18
2023-03-29T19:59:25.332Z,8.07
2023-03-29T20:01:56.801Z,6.70
2023-03-29T20:04:30.355Z,7.63
2023-03-29T20:06:58.500Z,8.50
2023-03-29T20:09:26.521Z,8.18
2023-03-29T20:11:54.113Z,8.90
2023-03-29T20:14:22.209Z,7.13
2023-03-29T20:16:51.076Z,8.40
2023-03-29T20:19:25.034Z,9.32
2023-03-29T20:21:55.054Z,7.70
2023-03-29T20:24:23.135Z,6.80
2023-03-29T20:26:52.589Z,8.27
2023-03-29T20:29:20.617Z,8.52
2023-03-29T20:31:49.431Z,9.15
2023-03-29T20:34:18.536Z,8.82
2023-03-29T20:36:48.307Z,9.70
2023-03-29T20:39:18.255Z,8.40
2023-03-29T20:41:48.349Z,7.93
2023-03-29T20:44:18.664Z,6.82
2023-03-29T20:46:54.755Z,6.97
2023-03-29T20:49:26.540Z,8.38
2023-03-29T20:51:58.885Z,6.93
2023-03-29T20:54:27.497Z,6.60
2023-03-29T20:56:56.100Z,9.93
2023-03-29T20:59:24.181Z,13.40
2023-03-29T21:01:52.229Z,9.65
2023-03-29T21:04:20.444Z,7.80
2023-03-29T21:06:49.696Z,9.50
2023-03-29T21:09:21.144Z,9.13
2023-03-29T21:11:49.244Z,8.60
2023-03-29T21:14:19.642Z,7.07
2023-03-29T21:16:48.124Z,8.73
2023-03-29T21:19:16.286Z,8.23
2023-03-29T21:21:44.864Z,8.55
2023-03-29T21:24:14.460Z,7.55
2023-03-29T21:26:43.803Z,9.38
2023-03-29T21:29:11.793Z,9.27
2023-03-29T21:31:39.520Z,11.10
2023-03-29T21:34:07.461Z,10.13
2023-03-29T21:36:36.046Z,9.77
2023-03-29T21:39:04.866Z,8.93
2023-03-29T21:41:32.652Z,9.13
2023-03-29T21:44:02.178Z,10.20
2023-03-29T21:46:29.880Z,8.70
2023-03-29T21:48:58.090Z,9.27
2023-03-29T21:51:26.385Z,9.35
2023-03-29T21:53:54.068Z,8.50
2023-03-29T21:56:22.509Z,11.02
2023-03-29T21:58:50.758Z,11.25
2023-03-29T22:01:19.691Z,9.77
2023-03-29T22:03:47.769Z,10.32
2023-03-29T22:06:16.549Z,10.97
2023-03-29T22:08:46.674Z,9.65
2023-03-29T22:11:16.671Z,8.23
2023-03-29T22:13:45.385Z,9.32
2023-03-29T22:16:16.966Z,8.65
2023-03-29T22:18:49.193Z,13.43
2023-03-29T22:21:19.380Z,8.63
2023-03-29T22:23:49.316Z,8.63
2023-03-29T22:26:19.127Z,9.93
2023-03-29T22:28:47.254Z,7.97
2023-03-29T22:31:16.967Z,7.77
2023-03-29T22:33:46.635Z,10.45
2023-03-29T22:36:16.693Z,8.07
2023-03-29T22:38:44.700Z,10.65
2023-03-29T22:41:12.790Z,8.13
2023-03-29T22:43:41.412Z,9.67
2023-03-29T22:46:11.649Z,9.52
2023-03-29T22:48:39.739Z,9.35
2023-03-29T22:51:09.226Z,7.88
2023-03-29T22:53:37.175Z,8.80
2023-03-29T22:56:07.046Z,9.37
2023-03-29T22:58:35.166Z,9.25
2023-03-29T23:01:03.337Z,9.10
2023-03-29T23:03:31.370Z,7.90
2023-03-29T23:06:02.416Z,9.13
2023-03-29T23:08:33.011Z,8.77
2023-03-29T23:11:02.195Z,9.95
2023-03-29T23:13:30.544Z,10.32
2023-03-29T23:16:00.548Z,7.72
2023-03-29T23:18:30.370Z,9.07
2023-03-29T23:21:00.299Z,9.27
2023-03-29T23:23:29.154Z,8.60
2023-03-29T23:25:58.201Z,10.40
2023-03-29T23:28:30.767Z,10.07
2023-03-29T23:31:02.457Z,9.02
2023-03-29T23:33:33.770Z,10.37
2023-03-29T23:36:03.461Z,9.55
2023-03-29T23:38:31.345Z,9.52
2023-03-29T23:41:02.468Z,8.63
2023-03-29T23:43:32.634Z,13.05
2023-03-29T23:46:02.246Z,10.27
2023-03-29T23:48:30.587Z,10.82
2023-03-29T23:50:58.291Z,9.95
2023-03-29T23:53:29.181Z,10.90
2023-03-29T23:55:58.644Z,9.77
2023-03-29T23:58:28.447Z,9.13
